Alianca Shanghai — A8CQ5 — position and weather

sailwx.info

Track history (hours):
 
Tides and Currents Weather Stations Pressure Air Temp Water Temp Dewpoint Dewpoint Depression Visibility Wind Speed Wind Dir Waves Ship Positions

Alianca Shanghai

Last reported at 2017-Feb-18 06:12 UTC. Time now 2017-Feb-28 14:49 UTC.
Position N 27°42' W 015°20'.
Warning: this ship's position is 10 days out of date.

Length 199.9 m; beam 29.8 m; draft 11.6 m.

Type: Ship. MMSI: 636016014.

Date/timePositionNaut miles runAvg speedWind from/ knotsBaromVisibWave heightAir tempDewpointWater temp
2017-Feb-18 06:12N 27°42' W 015°20'1015.1
2017-Feb-18 05:33N 27°51' W 015°17'1413.6
2017-Feb-18 04:33N 28°04' W 015°21'5 4.9
2017-Feb-18 03:32N 28°08' W 015°25'0 0.0
2017-Feb-18 02:32N 28°08' W 015°25'0 0.0
2017-Feb-18 01:32N 28°08' W 015°25'0 0.0
2017-Feb-18 00:23N 28°08' W 015°25'0 0.0
2017-Feb-17 23:32N 28°08' W 015°25'0 0.0
2017-Feb-17 22:23N 28°08' W 015°25'0 0.0
2017-Feb-17 21:26N 28°08' W 015°25'0 0.0
2017-Feb-17 20:26N 28°08' W 015°25'0 0.0
2017-Feb-17 19:26N 28°08' W 015°25'0 0.0
2017-Feb-17 18:29N 28°08' W 015°25'0 0.0
2017-Feb-17 17:29N 28°08' W 015°25'0 0.0
2017-Feb-17 16:29N 28°08' W 015°25'0 0.0
2017-Feb-17 15:32N 28°08' W 015°25'0 0.0
2017-Feb-17 14:32N 28°08' W 015°25'0 0.0
2017-Feb-17 13:32N 28°08' W 015°25'0 0.0
2017-Feb-17 12:32N 28°08' W 015°25'0 0.0
2017-Feb-17 11:20N 28°08' W 015°25'0 0.0
2017-Feb-17 10:32N 28°08' W 015°25'0 0.0
2017-Feb-17 09:32N 28°08' W 015°25'0 0.0
2017-Feb-17 08:23N 28°08' W 015°25'0 0.1
2017-Feb-17 07:33N 28°08' W 015°25'2 2.0
2017-Feb-17 06:33N 28°07' W 015°23'1211.6
2017-Feb-17 05:33N 28°15' W 015°13'1313.3
2017-Feb-17 04:33N 28°25' W 015°03'1313.4
2017-Feb-17 03:33N 28°34' W 014°52'1313.4
2017-Feb-17 02:33N 28°44' W 014°41'1313.3
2017-Feb-17 01:34N 28°53' W 014°30'1413.6
2017-Feb-17 00:33N 29°02' W 014°19'1413.7
2017-Feb-16 23:33N 29°12' W 014°08'1413.7
2017-Feb-16 22:33N 29°22' W 013°56'1413.8
2017-Feb-16 21:33N 29°31' W 013°45'1414.1
2017-Feb-16 20:33N 29°41' W 013°34'1414.1
2017-Feb-16 19:33N 29°51' W 013°22'1414.0
2017-Feb-16 18:33N 30°01' W 013°11'1413.6
2017-Feb-16 17:33N 30°10' W 012°59'5813.6
2017-Feb-16 13:18N 30°51' W 012°11'1013.5
2017-Feb-16 12:33N 30°58' W 012°03'1513.5
2017-Feb-16 11:25N 31°09' W 011°50'1213.6
2017-Feb-16 10:34N 31°17' W 011°40'1513.7
2017-Feb-16 09:26N 31°28' W 011°28'  
2017-Feb-13 21:03N 37°28' W 009°12'714.2
2017-Feb-13 20:33N 37°33' W 009°07'1414.1
2017-Feb-13 19:33N 37°45' W 008°57'1211.8
2017-Feb-13 18:34N 37°56' W 008°51'0 0.5
2017-Feb-13 17:33N 37°56' W 008°51'0 0.0
2017-Feb-13 16:33N 37°56' W 008°51'0 0.0
2017-Feb-13 15:33N 37°56' W 008°51'0 0.0
2017-Feb-13 14:33N 37°56' W 008°51'0 0.0
2017-Feb-13 13:33N 37°56' W 008°51'0 0.0
2017-Feb-13 12:33N 37°56' W 008°51'0 0.0
2017-Feb-13 11:33N 37°56' W 008°51'0 0.0
2017-Feb-13 10:33N 37°56' W 008°51'0 0.0
2017-Feb-13 09:33N 37°56' W 008°51'0 0.0
2017-Feb-13 08:33N 37°56' W 008°51'0 0.0
2017-Feb-13 07:30N 37°56' W 008°51'0 0.0
2017-Feb-13 06:33N 37°56' W 008°51'0 0.0
2017-Feb-13 05:33N 37°56' W 008°51'0 0.0
2017-Feb-13 04:33N 37°56' W 008°51'0 0.0
2017-Feb-13 03:33N 37°56' W 008°51'0 0.0
2017-Feb-13 02:33N 37°56' W 008°51'0 0.0
2017-Feb-13 01:33N 37°56' W 008°51'0 0.0
2017-Feb-13 00:33N 37°56' W 008°51'2 2.1
2017-Feb-12 23:34N 37°54' W 008°51'5 4.6
2017-Feb-12 22:33N 37°52' W 008°55'4 3.5
2017-Feb-12 21:34N 37°55' W 008°58'4 3.6
2017-Feb-12 20:34N 37°58' W 008°58'3 2.7
2017-Feb-12 19:34N 38°01' W 008°58'3 3.2
2017-Feb-12 18:34N 38°04' W 008°56'2 1.7
2017-Feb-12 17:34N 38°05' W 008°54'1 1.1
2017-Feb-12 16:33N 38°05' W 008°56'1 1.2
2017-Feb-12 15:33N 38°04' W 008°57'1 1.4
2017-Feb-12 14:33N 38°03' W 008°59'0 0.2
2017-Feb-12 13:33N 38°04' W 008°59'3 3.0
2017-Feb-12 12:33N 38°06' W 008°59'5 4.6
2017-Feb-12 11:34N 38°11' W 008°58'4 4.3
2017-Feb-12 10:34N 38°15' W 008°58'1 1.2
2017-Feb-12 09:33N 38°16' W 008°59'2 1.7
2017-Feb-12 08:34N 38°16' W 009°00'2 1.7
2017-Feb-12 07:33N 38°15' W 009°02'1 1.5
2017-Feb-12 06:33N 38°14' W 009°03'1 1.3
2017-Feb-12 05:33N 38°12' W 009°03'1 1.1
2017-Feb-12 04:33N 38°11' W 009°02'1 1.1
2017-Feb-12 03:33N 38°10' W 009°02'1 1.2
2017-Feb-12 02:33N 38°09' W 009°01'1 1.0
2017-Feb-12 01:33N 38°09' W 008°60'1 0.9
2017-Feb-12 00:33N 38°08' W 008°59'1 0.8
2017-Feb-11 23:33N 38°08' W 008°58'4 3.9
2017-Feb-11 22:33N 38°05' W 009°02'5 5.2
2017-Feb-11 21:33N 38°02' W 009°07'1 1.4
2017-Feb-11 20:33N 38°03' W 009°06'1 1.3
2017-Feb-11 19:34N 38°04' W 009°04'2 1.8
2017-Feb-11 18:34N 38°04' W 009°02'2 1.5
2017-Feb-11 17:33N 38°05' W 009°01'2 1.6
2017-Feb-11 16:34N 38°06' W 008°59'1 1.0
2017-Feb-11 15:34N 38°07' W 008°58'1010.4
2017-Feb-11 14:34N 38°17' W 008°58'7 6.8
2017-Feb-11 13:33N 38°24' W 008°57'1 0.7
2017-Feb-11 12:33N 38°23' W 008°57'4 3.9
2017-Feb-11 11:34N 38°22' W 009°01'6 6.3
2017-Feb-11 10:34N 38°17' W 009°07'1 1.0
2017-Feb-11 09:34N 38°18' W 009°06'1 0.9
2017-Feb-11 08:33N 38°18' W 009°05'1 0.9
2017-Feb-11 07:34N 38°19' W 009°05'1 1.0
2017-Feb-11 06:34N 38°20' W 009°03'1 1.0
2017-Feb-11 05:34N 38°20' W 009°02'1 0.9
2017-Feb-11 04:33N 38°20' W 009°01'1 0.9
2017-Feb-11 03:33N 38°21' W 008°60'1 0.7
2017-Feb-11 02:34N 38°21' W 008°59'2 2.4
2017-Feb-11 01:33N 38°18' W 008°58'0 0.3
2017-Feb-11 00:33N 38°18' W 008°59'1 0.7
2017-Feb-10 23:33N 38°19' W 008°59'1 0.9
2017-Feb-10 22:34N 38°20' W 008°58'1 0.8
2017-Feb-10 21:33N 38°21' W 008°58'5 4.9
2017-Feb-10 20:34N 38°19' W 009°04'1010.0
2017-Feb-10 19:34N 38°20' W 009°16'1010.4
2017-Feb-10 18:33N 38°21' W 009°29'1111.0
2017-Feb-10 17:33N 38°25' W 009°43'1110.7
2017-Feb-10 16:33N 38°29' W 009°55'1310.9
2017-Feb-10 15:23N 38°40' W 010°05'911.1
2017-Feb-10 14:33N 38°49' W 010°06'1211.5
2017-Feb-10 13:33N 39°00' W 010°06'1111.5
2017-Feb-10 12:33N 39°12' W 010°07'  
Track history (hours):
 
Tides and Currents Weather Stations Pressure Air Temp Water Temp Dewpoint Dewpoint Depression Visibility Wind Speed Wind Dir Waves Ship Positions

Alianca Shanghai

Last reported at 2017-Feb-18 06:12 UTC. Time now 2017-Feb-28 14:49 UTC.
Position N 27°42' W 015°20'.
Warning: this ship's position is 10 days out of date.

Length 199.9 m; beam 29.8 m; draft 11.6 m.

Type: Ship. MMSI: 636016014.

Date/timePositionNaut miles runAvg speedWind from/ knotsBaromVisibWave heightAir tempDewpointWater temp
2017-Feb-18 06:12N 27°42' W 015°20'1015.1
2017-Feb-18 05:33N 27°51' W 015°17'1413.6
2017-Feb-18 04:33N 28°04' W 015°21'5 4.9
2017-Feb-18 03:32N 28°08' W 015°25'0 0.0
2017-Feb-18 02:32N 28°08' W 015°25'0 0.0
2017-Feb-18 01:32N 28°08' W 015°25'0 0.0
2017-Feb-18 00:23N 28°08' W 015°25'0 0.0
2017-Feb-17 23:32N 28°08' W 015°25'0 0.0
2017-Feb-17 22:23N 28°08' W 015°25'0 0.0
2017-Feb-17 21:26N 28°08' W 015°25'0 0.0
2017-Feb-17 20:26N 28°08' W 015°25'0 0.0
2017-Feb-17 19:26N 28°08' W 015°25'0 0.0
2017-Feb-17 18:29N 28°08' W 015°25'0 0.0
2017-Feb-17 17:29N 28°08' W 015°25'0 0.0
2017-Feb-17 16:29N 28°08' W 015°25'0 0.0
2017-Feb-17 15:32N 28°08' W 015°25'0 0.0
2017-Feb-17 14:32N 28°08' W 015°25'0 0.0
2017-Feb-17 13:32N 28°08' W 015°25'0 0.0
2017-Feb-17 12:32N 28°08' W 015°25'0 0.0
2017-Feb-17 11:20N 28°08' W 015°25'0 0.0
2017-Feb-17 10:32N 28°08' W 015°25'0 0.0
2017-Feb-17 09:32N 28°08' W 015°25'0 0.0
2017-Feb-17 08:23N 28°08' W 015°25'0 0.1
2017-Feb-17 07:33N 28°08' W 015°25'2 2.0
2017-Feb-17 06:33N 28°07' W 015°23'1211.6
2017-Feb-17 05:33N 28°15' W 015°13'1313.3
2017-Feb-17 04:33N 28°25' W 015°03'1313.4
2017-Feb-17 03:33N 28°34' W 014°52'1313.4
2017-Feb-17 02:33N 28°44' W 014°41'1313.3
2017-Feb-17 01:34N 28°53' W 014°30'1413.6
2017-Feb-17 00:33N 29°02' W 014°19'1413.7
2017-Feb-16 23:33N 29°12' W 014°08'1413.7
2017-Feb-16 22:33N 29°22' W 013°56'1413.8
2017-Feb-16 21:33N 29°31' W 013°45'1414.1
2017-Feb-16 20:33N 29°41' W 013°34'1414.1
2017-Feb-16 19:33N 29°51' W 013°22'1414.0
2017-Feb-16 18:33N 30°01' W 013°11'1413.6
2017-Feb-16 17:33N 30°10' W 012°59'5813.6
2017-Feb-16 13:18N 30°51' W 012°11'1013.5
2017-Feb-16 12:33N 30°58' W 012°03'1513.5
2017-Feb-16 11:25N 31°09' W 011°50'1213.6
2017-Feb-16 10:34N 31°17' W 011°40'1513.7
2017-Feb-16 09:26N 31°28' W 011°28'  
2017-Feb-13 21:03N 37°28' W 009°12'714.2
2017-Feb-13 20:33N 37°33' W 009°07'1414.1
2017-Feb-13 19:33N 37°45' W 008°57'1211.8
2017-Feb-13 18:34N 37°56' W 008°51'0 0.5
2017-Feb-13 17:33N 37°56' W 008°51'0 0.0
2017-Feb-13 16:33N 37°56' W 008°51'0 0.0
2017-Feb-13 15:33N 37°56' W 008°51'0 0.0
2017-Feb-13 14:33N 37°56' W 008°51'0 0.0
2017-Feb-13 13:33N 37°56' W 008°51'0 0.0
2017-Feb-13 12:33N 37°56' W 008°51'0 0.0
2017-Feb-13 11:33N 37°56' W 008°51'0 0.0
2017-Feb-13 10:33N 37°56' W 008°51'0 0.0
2017-Feb-13 09:33N 37°56' W 008°51'0 0.0
2017-Feb-13 08:33N 37°56' W 008°51'0 0.0
2017-Feb-13 07:30N 37°56' W 008°51'0 0.0
2017-Feb-13 06:33N 37°56' W 008°51'0 0.0
2017-Feb-13 05:33N 37°56' W 008°51'0 0.0
2017-Feb-13 04:33N 37°56' W 008°51'0 0.0
2017-Feb-13 03:33N 37°56' W 008°51'0 0.0
2017-Feb-13 02:33N 37°56' W 008°51'0 0.0
2017-Feb-13 01:33N 37°56' W 008°51'0 0.0
2017-Feb-13 00:33N 37°56' W 008°51'2 2.1
2017-Feb-12 23:34N 37°54' W 008°51'5 4.6
2017-Feb-12 22:33N 37°52' W 008°55'4 3.5
2017-Feb-12 21:34N 37°55' W 008°58'4 3.6
2017-Feb-12 20:34N 37°58' W 008°58'3 2.7
2017-Feb-12 19:34N 38°01' W 008°58'3 3.2
2017-Feb-12 18:34N 38°04' W 008°56'2 1.7
2017-Feb-12 17:34N 38°05' W 008°54'1 1.1
2017-Feb-12 16:33N 38°05' W 008°56'1 1.2
2017-Feb-12 15:33N 38°04' W 008°57'1 1.4
2017-Feb-12 14:33N 38°03' W 008°59'0 0.2
2017-Feb-12 13:33N 38°04' W 008°59'3 3.0
2017-Feb-12 12:33N 38°06' W 008°59'5 4.6
2017-Feb-12 11:34N 38°11' W 008°58'4 4.3
2017-Feb-12 10:34N 38°15' W 008°58'1 1.2
2017-Feb-12 09:33N 38°16' W 008°59'2 1.7
2017-Feb-12 08:34N 38°16' W 009°00'2 1.7
2017-Feb-12 07:33N 38°15' W 009°02'1 1.5
2017-Feb-12 06:33N 38°14' W 009°03'1 1.3
2017-Feb-12 05:33N 38°12' W 009°03'1 1.1
2017-Feb-12 04:33N 38°11' W 009°02'1 1.1
2017-Feb-12 03:33N 38°10' W 009°02'1 1.2
2017-Feb-12 02:33N 38°09' W 009°01'1 1.0
2017-Feb-12 01:33N 38°09' W 008°60'1 0.9
2017-Feb-12 00:33N 38°08' W 008°59'1 0.8
2017-Feb-11 23:33N 38°08' W 008°58'4 3.9
2017-Feb-11 22:33N 38°05' W 009°02'5 5.2
2017-Feb-11 21:33N 38°02' W 009°07'1 1.4
2017-Feb-11 20:33N 38°03' W 009°06'1 1.3
2017-Feb-11 19:34N 38°04' W 009°04'2 1.8
2017-Feb-11 18:34N 38°04' W 009°02'2 1.5
2017-Feb-11 17:33N 38°05' W 009°01'2 1.6
2017-Feb-11 16:34N 38°06' W 008°59'1 1.0
2017-Feb-11 15:34N 38°07' W 008°58'1010.4
2017-Feb-11 14:34N 38°17' W 008°58'7 6.8
2017-Feb-11 13:33N 38°24' W 008°57'1 0.7
2017-Feb-11 12:33N 38°23' W 008°57'4 3.9
2017-Feb-11 11:34N 38°22' W 009°01'6 6.3
2017-Feb-11 10:34N 38°17' W 009°07'1 1.0
2017-Feb-11 09:34N 38°18' W 009°06'1 0.9
2017-Feb-11 08:33N 38°18' W 009°05'1 0.9
2017-Feb-11 07:34N 38°19' W 009°05'1 1.0
2017-Feb-11 06:34N 38°20' W 009°03'1 1.0
2017-Feb-11 05:34N 38°20' W 009°02'1 0.9
2017-Feb-11 04:33N 38°20' W 009°01'1 0.9
2017-Feb-11 03:33N 38°21' W 008°60'1 0.7
2017-Feb-11 02:34N 38°21' W 008°59'2 2.4
2017-Feb-11 01:33N 38°18' W 008°58'0 0.3
2017-Feb-11 00:33N 38°18' W 008°59'1 0.7
2017-Feb-10 23:33N 38°19' W 008°59'1 0.9
2017-Feb-10 22:34N 38°20' W 008°58'1 0.8
2017-Feb-10 21:33N 38°21' W 008°58'5 4.9
2017-Feb-10 20:34N 38°19' W 009°04'1010.0
2017-Feb-10 19:34N 38°20' W 009°16'1010.4
2017-Feb-10 18:33N 38°21' W 009°29'1111.0
2017-Feb-10 17:33N 38°25' W 009°43'1110.7
2017-Feb-10 16:33N 38°29' W 009°55'1310.9
2017-Feb-10 15:23N 38°40' W 010°05'911.1
2017-Feb-10 14:33N 38°49' W 010°06'1211.5
2017-Feb-10 13:33N 39°00' W 010°06'1111.5
2017-Feb-10 12:33N 39°12' W 010°07'  

Dump ship's entire track history